Aeroporto :
LOGIN :

Iscrizione | Disclaimer

   EN    FR    IT 

 










Sommario :    VFR   VFR Marginale   IFR   IFR Intensivo   IFR Molto Intensivo
Visibilità : 
Base nubi : 
>= 8 km
>= 3000ft
5 / 8 km
1000 / 3000 ft
1500m / 5 km
500 / 1000 ft
800 / 1500m
200 / 500 ft
< 800m
< 200 ft
Simboli :   Temporali  Nebbia  Neve Forte  Precipitazioni Forti  Vento > 20 kt
SIGMETs :   Varie  Temporali  Ghiacco  Turbolenza  Onda orograficha  Ceneri Vulcaniche







- Altitudine del aeroporto : 202 ft
- Codice IATA : LGW
- Carte del aeroporto


EGKK - London Gatwick

ULTIMO METAR :
  • 202050Z 23006KT 9999 OVC013 10/08 Q1034

METARs OBSOLETI :
  • 202020Z 25007KT 9999 OVC012 10/08 Q1034
  • 201950Z 22006KT 9999 BKN012 11/09 Q1033
  • 201920Z 22005KT 190V250 9999 OVC014 11/08 Q1033
  • 201850Z 22005KT 180V240 9999 OVC017 11/09 Q1033
  • 201820Z 22005KT 9999 OVC017 11/09 Q1033

TAF AMD TAF EGKK
Valido dal 20 a 19 ore il 22 a 00 ore UTC


201933Z 2019/2124 21005KT 9999 BKN014
PROB30
TEMPO 2020/2023 6000 BKN003
TEMPO 2023/2109 4000 BR BKN003
BECMG 2108/2111 BKN016
TEMPO 2119/2124 BKN014
Nessun NOTAM noto per questo aeroporto.



MetMap, La meteo Aeronautica in un colpo d'occhio ! - Copyright ORBIFLY Dicembre 2007 - Disclaimer

ORBIFLY MET'MAP TEAM :

Programmazione e sviluppo : Alexandra Zaïnal
Concezione e sviluppo : Baudouin d'Aumeries
Co-Programmazione e sviluppo : Marc-Olivier Méhu
Supporto tecnico e logistico : Manuel Goepfert
Aiuto per la traduzione : Arnaldo La Scala

Contatto : metmap@orbifly.com




FONTI E CREDITI :

   NOAA